KPIL

Port Isabel-Cameron County Airport

Port Isabel, Texas, USA
METAR KPIL 201201Z AUTO 00000KT 1/4SM FG VV003 12/12 A3006 RMK AO2 T01170117
Observed Flight Rules
Jan-20 @ 12:01 UTC (an hour ago) Instrument Flight Rules
Wind Visibility Clouds Conditions
Calm 1/4 miles
  • Vertical visibility at 300' AGL
  • Fog
Temperatures Readings
Current 12°C / 54°F
Dewpoint 12°C / 54°F
Humidity 100%
Altimeter 30.06" Hg
Pressure 1018 hPa
Elevation 5
METAR KPIL 201201Z AUTO 00000KT 1/4SM FG VV003 12/12 A3006 RMK AO2 T01170117
Observed Flight Rules
Jan-20 @ 12:01 UTC
(an hour ago)
LIFR
Wind Visibility
Calm 1/4 miles
Clouds
  • Vertical visibility at 300' AGL
Conditions
  • Fog
Temperature Dewpoint
12°C / 54°F 12°C / 54°F
Humidity Altimeter Pressure
100% 30.06" Hg 1018 hPa